KPDK/PDK METAR and TAF weather

Enter ICAO airport designator
Station Type Date Time Source
KPDK METAR 2022/06/27 16:53 UTC NOAA

KPDK 271653Z 32006KT 10SM CLR 31/21 A3012 RMK AO2 SLP179 T03060206


Station Type Date Time Source
KPDK Decoded METAR 2022/06/27 16:53 UTC NOAA

ATLANTA DE KALB-PEACHTREE, GA, United States (KPDK) 33-53N 084-18W 302M
Jun 27, 2022 - 12:53 PM EDT / 2022.06.27 1653 UTC
Wind: from the NW (320 degrees) at 7 MPH (6 KT):0
Visibility: 10 mile(s):0
Sky conditions: clear
Temperature: 87.1 F (30.6 C)
Dew Point: 69.1 F (20.6 C)
Relative Humidity: 55%
Pressure (altimeter): 30.12 in. Hg (1019 hPa)
ob: KPDK 271653Z 32006KT 10SM CLR 31/21 A3012 RMK AO2 SLP179 T03060206
cycle: 17

Station Type Date Time Source
KPDK TAF 2022/06/27 12:22 UTC NOAA

TAF KPDK 271120Z 2712/2812 27004KT P6SM VCSH BKN090
FM271700 31006KT P6SM -SHRA BKN050
TEMPO 2718/2722 4SM TSRA BR OVC025CB
FM280000 31004KT P6SM VCSH SCT060 OVC100
FM280500 02003KT P6SM BKN040

Example: see airport list